Startpagina
METAR-TAF:

METAR-TAF

Vliegvelden :

Internationale luchthaven Hongkong

Hongkong, China

breedte: 22-19N, lengte: 113-55E, hoogte: 9 m

Actueel weer

Dit bericht is 18 minuten geleden gemaakt, om 21:30 UTC
Wind 9 kt uit het noorden
Temperatuur 17°C
Vochtigheid 68%
Druk 1020 hPa
Zicht 10 km of meer
Weinig wolken op 2000 ft
Verspreide wolken op 2300 ft

METAR: VHHH 102130Z 35009KT 9999 FEW020 SCT023 17/11 Q1020 NOSIG

Tijdstip: 05:48 (21:48 UTC)

Verwachting

Dit bericht is 4 uur en het 48 minuten geleden gemaakt, om 17:00 UTC
Verwachting geldig van 10 om 18 UTC tot 11 om 24 UTC
Wind 10 kt uit het noorden
Zicht: 9000 m
Weinig wolken op 2500 ft
Tijdelijke
van 11 om 12 UTC tot 11 om 24 UTC
Wind 20 kt uit het noorden

TAF: VHHH 101700Z 1018/1124 36010KT 9000 FEW025 TX18/1106Z TN13/1023Z TN12/1123Z TEMPO 1112/1124 36020KT

Waarnemingen en weersverwachtingen van meer dan 4000 vliegvelden (METAR en TAF).

De beschikbare stations zijn de gele en rode punten op de kaart.

Ga met uw muis naar het station om de naam te zien.

Klik dan om waarnemingen en weersverwachtingen te zien.

kaart wijzigen: klik op de groene knoppen met een zwart kruis om in te zoomen, op de groene knop met een streepje om uit te zoomen of op de groene pijlen voor aangrenzende kaarten.


METAR-TAF: